createdAt,value
2023-01-17T00:02:25.173Z,94998.38
2023-01-17T00:05:10.451Z,94997.97
2023-01-17T00:07:55.865Z,95000.66
2023-01-17T00:10:24.878Z,95004.34
2023-01-17T00:12:53.990Z,95006.75
2023-01-17T00:15:22.903Z,94991.56
2023-01-17T00:17:50.196Z,94993.00
2023-01-17T00:20:37.683Z,94996.41
2023-01-17T00:23:30.604Z,94999.94
2023-01-17T00:26:03.053Z,95004.91
2023-01-17T00:28:40.712Z,94999.66
2023-01-17T00:31:09.050Z,94994.09
2023-01-17T00:33:35.742Z,94995.66
2023-01-17T00:36:03.627Z,95000.19
2023-01-17T00:38:32.994Z,95002.59
2023-01-17T00:41:05.210Z,94994.50
2023-01-17T00:43:50.873Z,95001.19
2023-01-17T00:46:36.806Z,94998.19
2023-01-17T00:49:21.952Z,94997.50
2023-01-17T00:52:07.340Z,95005.44
2023-01-17T00:54:52.820Z,94999.34
2023-01-17T00:57:37.865Z,95000.31
2023-01-17T01:00:23.664Z,95000.75
2023-01-17T01:03:09.319Z,95013.41
2023-01-17T01:05:55.959Z,95009.88
2023-01-17T01:08:46.827Z,95008.88
2023-01-17T01:11:35.291Z,95007.88
2023-01-17T01:14:21.268Z,95011.97
2023-01-17T01:17:06.576Z,95003.88
2023-01-17T01:19:52.606Z,95011.53
2023-01-17T01:22:38.075Z,95013.69
2023-01-17T01:25:24.032Z,95016.13
2023-01-17T01:28:09.617Z,95016.41
2023-01-17T01:30:55.055Z,95024.22
2023-01-17T01:33:21.647Z,95026.38
2023-01-17T01:35:53.875Z,95025.94
2023-01-17T01:38:23.091Z,95028.19
2023-01-17T01:40:53.086Z,95029.47
2023-01-17T01:43:44.984Z,95026.47
2023-01-17T01:46:16.661Z,95035.41
2023-01-17T01:49:17.455Z,95030.47
2023-01-17T01:51:53.151Z,95036.16
2023-01-17T01:54:28.251Z,95042.09
2023-01-17T01:56:57.757Z,95042.41
2023-01-17T01:59:25.807Z,95040.41
2023-01-17T02:01:55.868Z,95036.28
2023-01-17T02:04:23.411Z,95042.38
2023-01-17T02:06:56.012Z,95046.78
2023-01-17T02:09:23.646Z,95052.47
2023-01-17T02:11:50.451Z,95046.63
2023-01-17T02:14:18.422Z,95040.97
2023-01-17T02:17:02.958Z,95042.53
2023-01-17T02:20:04.256Z,95041.25
2023-01-17T02:23:14.830Z,95045.22
2023-01-17T02:26:29.551Z,95044.38
2023-01-17T02:29:28.414Z,95050.19
2023-01-17T02:32:09.528Z,95052.19
2023-01-17T02:34:51.290Z,95046.47
2023-01-17T02:37:34.785Z,95044.94
2023-01-17T02:40:08.747Z,95052.31
2023-01-17T02:42:42.656Z,95045.50
2023-01-17T02:45:14.721Z,95052.19
2023-01-17T02:47:41.346Z,95050.94
2023-01-17T02:50:12.347Z,95051.06
2023-01-17T02:53:32.546Z,95053.63
2023-01-17T02:56:48.349Z,95050.94
2023-01-17T02:59:27.295Z,95054.91
2023-01-17T03:02:17.013Z,95053.47
2023-01-17T03:05:01.641Z,95052.50
2023-01-17T03:07:29.873Z,95046.81
2023-01-17T03:10:00.895Z,95049.78
2023-01-17T03:12:29.713Z,95051.34
2023-01-17T03:14:56.414Z,95055.75
2023-01-17T03:17:28.305Z,95058.88
2023-01-17T03:19:54.958Z,95056.03
2023-01-17T03:22:21.615Z,95058.75
2023-01-17T03:24:48.256Z,95061.44
2023-01-17T03:27:14.970Z,95059.44
2023-01-17T03:29:41.601Z,95057.44
2023-01-17T03:32:08.191Z,95062.72
2023-01-17T03:34:34.814Z,95061.84
2023-01-17T03:37:01.476Z,95061.44
2023-01-17T03:39:28.183Z,95065.69
2023-01-17T03:41:54.779Z,95067.69
2023-01-17T03:44:21.395Z,95066.13
2023-01-17T03:46:48.002Z,95074.78
2023-01-17T03:49:15.070Z,95070.09
2023-01-17T03:51:41.708Z,95080.75
2023-01-17T03:54:08.584Z,95075.09
2023-01-17T03:56:35.212Z,95067.53
2023-01-17T03:59:02.017Z,95078.06
2023-01-17T04:01:28.844Z,95072.66
2023-01-17T04:03:55.509Z,95071.25
2023-01-17T04:06:22.181Z,95071.66
2023-01-17T04:08:48.868Z,95075.75
2023-01-17T04:11:15.536Z,95071.50
2023-01-17T04:13:42.170Z,95067.25
2023-01-17T04:16:14.312Z,95071.94
2023-01-17T04:18:41.191Z,95071.06
2023-01-17T04:21:08.233Z,95078.03
2023-01-17T04:23:35.317Z,95072.06
2023-01-17T04:26:03.614Z,95072.78
2023-01-17T04:28:31.759Z,95066.09
2023-01-17T04:30:59.966Z,95076.03
2023-01-17T04:33:26.826Z,95078.88
2023-01-17T04:35:54.330Z,95073.47
2023-01-17T04:38:23.808Z,95079.72
2023-01-17T04:40:51.408Z,95072.75
2023-01-17T04:43:18.088Z,95073.63
2023-01-17T04:45:44.749Z,95069.63
2023-01-17T04:48:12.708Z,95077.31
2023-01-17T04:50:40.255Z,95072.19
2023-01-17T04:53:06.927Z,95077.16
2023-01-17T04:55:33.545Z,95073.34
2023-01-17T04:58:00.180Z,95088.41
2023-01-17T05:00:26.776Z,95081.47
2023-01-17T05:02:53.507Z,95085.56
2023-01-17T05:05:20.246Z,95091.78
2023-01-17T05:07:54.461Z,95090.81
2023-01-17T05:10:21.080Z,95088.69
2023-01-17T05:12:58.948Z,95087.69
2023-01-17T05:15:26.743Z,95091.22
2023-01-17T05:17:54.149Z,95091.66
2023-01-17T05:20:22.393Z,95093.66
2023-01-17T05:22:56.399Z,95097.22
2023-01-17T05:25:24.707Z,95097.03
2023-01-17T05:27:51.529Z,95086.84
2023-01-17T05:30:18.859Z,95109.28
2023-01-17T05:32:49.273Z,95099.34
2023-01-17T05:35:19.604Z,95105.75
2023-01-17T05:37:49.118Z,95109.16
2023-01-17T05:40:27.327Z,95113.25
2023-01-17T05:42:56.015Z,95113.25
2023-01-17T05:45:24.671Z,95121.50
2023-01-17T05:47:53.172Z,95115.41
2023-01-17T05:50:29.174Z,95122.53
2023-01-17T05:53:01.941Z,95120.38
2023-01-17T05:55:29.181Z,95131.16
2023-01-17T05:57:56.155Z,95132.88
2023-01-17T06:00:23.365Z,95134.28
2023-01-17T06:02:50.295Z,95137.56
2023-01-17T06:05:17.154Z,95137.84
2023-01-17T06:07:45.505Z,95138.03
2023-01-17T06:10:16.387Z,95146.81
2023-01-17T06:12:44.317Z,95151.66
2023-01-17T06:15:12.409Z,95150.94
2023-01-17T06:17:39.385Z,95154.47
2023-01-17T06:20:08.613Z,95145.66
2023-01-17T06:22:35.647Z,95150.78
2023-01-17T06:25:02.238Z,95166.00
2023-01-17T06:27:28.949Z,95163.13
2023-01-17T06:29:55.574Z,95164.13
2023-01-17T06:32:22.206Z,95170.69
2023-01-17T06:34:48.828Z,95170.84
2023-01-17T06:37:15.502Z,95181.19
2023-01-17T06:39:42.294Z,95180.63
2023-01-17T06:42:08.937Z,95180.19
2023-01-17T06:44:35.559Z,95175.22
2023-01-17T06:47:02.194Z,95173.41
2023-01-17T06:49:28.792Z,95173.84
2023-01-17T06:51:55.433Z,95165.16
2023-01-17T06:54:22.084Z,95168.72
2023-01-17T06:56:48.687Z,95175.38
2023-01-17T06:59:15.298Z,95181.91
2023-01-17T07:01:41.964Z,95180.19
2023-01-17T07:04:08.712Z,95179.63
2023-01-17T07:06:36.575Z,95180.63
2023-01-17T07:09:04.313Z,95181.47
2023-01-17T07:11:31.881Z,95179.91
2023-01-17T07:13:58.718Z,95173.22
2023-01-17T07:16:25.534Z,95173.47
2023-01-17T07:18:54.710Z,95176.78
2023-01-17T07:21:21.435Z,95177.78
2023-01-17T07:23:48.693Z,95178.63
2023-01-17T07:26:17.300Z,95180.63
2023-01-17T07:28:44.192Z,95173.81
2023-01-17T07:31:11.035Z,95180.63
2023-01-17T07:33:37.762Z,95168.41
2023-01-17T07:36:08.582Z,95179.25
2023-01-17T07:38:35.547Z,95182.22
2023-01-17T07:41:02.685Z,95172.69
2023-01-17T07:43:29.401Z,95176.66
2023-01-17T07:45:56.158Z,95170.41
2023-01-17T07:48:24.598Z,95166.59
2023-01-17T07:50:57.310Z,95167.28
2023-01-17T07:53:26.529Z,95164.00
2023-01-17T07:55:53.838Z,95159.47
2023-01-17T07:58:20.989Z,95162.44
2023-01-17T08:00:48.045Z,95160.75
2023-01-17T08:03:17.398Z,95166.00
2023-01-17T08:05:52.968Z,95171.81
2023-01-17T08:08:19.800Z,95172.41
2023-01-17T08:10:46.458Z,95175.22
2023-01-17T08:13:13.136Z,95183.63
2023-01-17T08:15:39.775Z,95187.31
2023-01-17T08:18:06.376Z,95191.59
2023-01-17T08:20:33.021Z,95196.00
2023-01-17T08:22:59.845Z,95187.63
2023-01-17T08:25:26.848Z,95199.44
2023-01-17T08:27:58.010Z,95183.34
2023-01-17T08:30:25.889Z,95190.31
2023-01-17T08:32:52.779Z,95196.44
2023-01-17T08:35:20.220Z,95198.00
2023-01-17T08:37:47.917Z,95197.00
2023-01-17T08:40:17.576Z,95197.16
2023-01-17T08:42:44.296Z,95208.97
2023-01-17T08:45:12.178Z,95213.19
2023-01-17T08:47:38.928Z,95206.66
2023-01-17T08:50:06.955Z,95203.63
2023-01-17T08:52:33.876Z,95207.75
2023-01-17T08:55:00.536Z,95209.31
2023-01-17T08:57:27.502Z,95201.78
2023-01-17T08:59:54.100Z,95198.91
2023-01-17T09:02:20.749Z,95200.72
2023-01-17T09:04:48.936Z,95201.16
2023-01-17T09:07:17.495Z,95195.88
2023-01-17T09:09:44.618Z,95196.47
2023-01-17T09:12:11.244Z,95194.91
2023-01-17T09:14:38.369Z,95187.22
2023-01-17T09:17:07.998Z,95196.91
2023-01-17T09:19:35.507Z,95182.94
2023-01-17T09:22:04.233Z,95186.34
2023-01-17T09:24:32.713Z,95175.09
2023-01-17T09:26:59.966Z,95172.56
2023-01-17T09:29:26.662Z,95165.75
2023-01-17T09:31:53.277Z,95168.31
2023-01-17T09:34:19.978Z,95166.63
2023-01-17T09:36:46.693Z,95165.34
2023-01-17T09:39:15.292Z,95155.81
2023-01-17T09:42:19.794Z,95149.13
2023-01-17T09:44:51.467Z,95149.56
2023-01-17T09:47:52.537Z,95142.03
2023-01-17T09:50:37.347Z,95127.38
2023-01-17T09:53:11.287Z,95121.22
2023-01-17T09:55:49.060Z,95121.22
2023-01-17T09:58:21.910Z,95110.13
2023-01-17T10:01:27.679Z,95097.50
2023-01-17T10:04:20.543Z,95091.19
2023-01-17T10:07:38.406Z,95078.25
2023-01-17T10:10:47.347Z,95065.72
2023-01-17T10:13:42.247Z,95059.91
2023-01-17T10:16:37.870Z,95049.50
2023-01-17T10:19:28.168Z,95040.78
2023-01-17T10:22:12.587Z,95045.63
2023-01-17T10:25:20.078Z,95043.50
2023-01-17T10:28:03.194Z,95041.69
2023-01-17T10:30:49.109Z,95035.72
2023-01-17T10:33:28.691Z,95034.41
2023-01-17T10:36:15.381Z,95032.13
2023-01-17T10:38:47.442Z,95028.97
2023-01-17T10:41:29.961Z,95023.03
2023-01-17T10:44:23.368Z,95003.78
2023-01-17T10:47:04.214Z,95012.16
2023-01-17T10:49:31.078Z,94999.59
2023-01-17T10:52:11.561Z,95005.41
2023-01-17T10:55:10.080Z,94989.66
2023-01-17T10:57:43.237Z,94992.06
2023-01-17T11:00:44.346Z,94992.50
2023-01-17T11:03:16.385Z,94981.91
2023-01-17T11:05:43.537Z,94986.06
2023-01-17T11:08:13.615Z,94994.63
2023-01-17T11:10:44.580Z,94989.22
2023-01-17T11:13:38.729Z,94975.69
2023-01-17T11:16:09.952Z,94990.06
2023-01-17T11:18:39.600Z,94985.38
2023-01-17T11:21:17.405Z,94977.75
2023-01-17T11:23:49.693Z,94957.53
2023-01-17T11:26:34.389Z,94947.66
2023-01-17T11:29:38.854Z,94940.72
2023-01-17T11:32:32.016Z,94925.88
2023-01-17T11:35:32.463Z,94916.59
2023-01-17T11:38:07.783Z,94905.47
2023-01-17T11:40:47.622Z,94896.28
2023-01-17T11:43:21.117Z,94890.31
2023-01-17T11:46:15.454Z,94879.59
2023-01-17T11:48:46.545Z,94859.09
2023-01-17T11:51:31.271Z,94848.66
2023-01-17T11:54:16.592Z,94844.06
2023-01-17T11:56:46.270Z,94841.38
2023-01-17T11:59:22.105Z,94838.28
2023-01-17T12:02:46.846Z,94840.66
2023-01-17T12:05:42.339Z,94838.66
2023-01-17T12:08:30.401Z,94849.72
2023-01-17T12:11:10.202Z,94855.97
2023-01-17T12:14:22.337Z,94857.97
2023-01-17T12:17:19.515Z,94859.53
2023-01-17T12:20:01.604Z,94874.09
2023-01-17T12:23:08.906Z,94874.56
2023-01-17T12:26:25.004Z,94867.03
2023-01-17T12:29:21.627Z,94861.63
2023-01-17T12:32:06.817Z,94867.88
2023-01-17T12:34:43.601Z,94861.38
2023-01-17T12:37:24.701Z,94861.38
2023-01-17T12:40:03.409Z,94848.88
2023-01-17T12:42:37.047Z,94846.53
2023-01-17T12:45:24.496Z,94838.88
2023-01-17T12:47:59.061Z,94834.66
2023-01-17T12:50:41.085Z,94840.75
2023-01-17T12:53:18.189Z,94832.78
2023-01-17T12:56:28.577Z,94823.13
2023-01-17T12:59:04.147Z,94807.69
2023-01-17T13:01:43.136Z,94789.94
2023-01-17T13:04:46.924Z,94791.09
2023-01-17T13:07:42.721Z,94789.69
2023-01-17T13:10:25.103Z,94784.38
2023-01-17T13:12:54.671Z,94788.16
2023-01-17T13:15:28.448Z,94791.81
2023-01-17T13:18:09.470Z,94796.84
2023-01-17T13:20:56.252Z,94801.19
2023-01-17T13:23:30.736Z,94801.19
2023-01-17T13:25:59.882Z,94792.25
2023-01-17T13:28:42.710Z,94791.09
2023-01-17T13:31:20.411Z,94780.75
2023-01-17T13:34:08.906Z,94783.56
2023-01-17T13:37:20.651Z,94772.16
2023-01-17T13:40:16.783Z,94778.59
2023-01-17T13:43:00.097Z,94788.03
2023-01-17T13:45:34.865Z,94784.00
2023-01-17T13:48:25.694Z,94766.94
2023-01-17T13:51:06.065Z,94754.47
2023-01-17T13:53:35.685Z,94759.66
2023-01-17T13:56:27.756Z,94752.38
2023-01-17T13:59:02.098Z,94761.75
2023-01-17T14:01:38.359Z,94759.19
2023-01-17T14:04:10.588Z,94757.06
2023-01-17T14:06:46.431Z,94746.59
2023-01-17T14:09:19.207Z,94740.81
2023-01-17T14:12:02.429Z,94738.56
2023-01-17T14:14:46.487Z,94734.84
2023-01-17T14:17:23.133Z,94726.81
2023-01-17T14:19:52.693Z,94714.47
2023-01-17T14:22:30.089Z,94711.75
2023-01-17T14:25:19.014Z,94702.84
2023-01-17T14:27:50.322Z,94678.25
2023-01-17T14:30:36.639Z,94677.31
2023-01-17T14:33:12.716Z,94669.19
2023-01-17T14:35:49.822Z,94665.41
2023-01-17T14:38:22.005Z,94664.00
2023-01-17T14:41:15.786Z,94647.78
2023-01-17T14:43:43.703Z,94637.66
2023-01-17T14:46:21.725Z,94630.41
2023-01-17T14:48:48.550Z,94652.13
2023-01-17T14:51:21.322Z,94651.78
2023-01-17T14:53:59.308Z,94654.81
2023-01-17T14:56:28.226Z,94656.97
2023-01-17T14:59:27.144Z,94654.72
2023-01-17T15:02:08.268Z,94639.31
2023-01-17T15:04:39.466Z,94631.44
2023-01-17T15:07:07.436Z,94624.97
2023-01-17T15:09:37.491Z,94612.88
2023-01-17T15:12:08.052Z,94604.63
2023-01-17T15:14:38.449Z,94607.22
2023-01-17T15:17:18.542Z,94594.53
2023-01-17T15:19:53.914Z,94606.63
2023-01-17T15:22:20.901Z,94595.72
2023-01-17T15:24:49.185Z,94592.19
2023-01-17T15:27:16.970Z,94594.19
2023-01-17T15:29:45.434Z,94594.41
2023-01-17T15:32:19.938Z,94585.13
2023-01-17T15:34:49.058Z,94586.66
2023-01-17T15:37:34.709Z,94579.03
2023-01-17T15:40:22.789Z,94585.00
2023-01-17T15:42:53.274Z,94579.38
2023-01-17T15:45:24.394Z,94578.44
2023-01-17T15:47:51.082Z,94561.38
2023-01-17T15:50:30.582Z,94555.75
2023-01-17T15:53:02.809Z,94548.69
2023-01-17T15:55:48.120Z,94546.00
2023-01-17T15:58:27.189Z,94554.34
2023-01-17T16:00:54.241Z,94553.03
2023-01-17T16:03:31.812Z,94553.50
2023-01-17T16:06:01.184Z,94550.81
2023-01-17T16:08:39.679Z,94550.81
2023-01-17T16:11:08.166Z,94541.28
2023-01-17T16:13:42.224Z,94537.88
2023-01-17T16:16:24.584Z,94537.53
2023-01-17T16:18:59.121Z,94529.88
2023-01-17T16:21:29.445Z,94538.34
2023-01-17T16:23:56.523Z,94537.75
2023-01-17T16:26:25.686Z,94537.28
2023-01-17T16:28:52.384Z,94542.81
2023-01-17T16:31:19.519Z,94535.66
2023-01-17T16:33:49.109Z,94534.47
2023-01-17T16:36:16.679Z,94529.41
2023-01-17T16:38:45.483Z,94521.31
2023-01-17T16:41:12.400Z,94516.97
2023-01-17T16:43:39.050Z,94520.63
2023-01-17T16:46:06.129Z,94503.00
2023-01-17T16:48:32.800Z,94483.72
2023-01-17T16:50:59.582Z,94486.28
2023-01-17T16:53:28.204Z,94489.81
2023-01-17T16:56:05.276Z,94489.34
2023-01-17T16:58:31.907Z,94477.00
2023-01-17T17:01:00.277Z,94476.44
2023-01-17T17:03:27.031Z,94483.84
2023-01-17T17:05:58.538Z,94493.22
2023-01-17T17:08:25.341Z,94498.78
2023-01-17T17:10:52.111Z,94498.03
2023-01-17T17:13:18.788Z,94484.78
2023-01-17T17:15:45.748Z,94471.75
2023-01-17T17:18:17.249Z,94483.13
2023-01-17T17:20:44.760Z,94493.34
2023-01-17T17:23:11.596Z,94488.16
2023-01-17T17:25:38.710Z,94492.53
2023-01-17T17:28:06.120Z,94495.81
2023-01-17T17:30:33.383Z,94496.16
2023-01-17T17:33:00.168Z,94492.88
2023-01-17T17:35:26.946Z,94501.22
2023-01-17T17:37:54.037Z,94502.59
2023-01-17T17:40:20.894Z,94495.22
2023-01-17T17:42:47.494Z,94493.22
2023-01-17T17:45:14.214Z,94481.25
2023-01-17T17:47:40.791Z,94477.59
2023-01-17T17:50:08.166Z,94471.50
2023-01-17T17:52:34.986Z,94475.25
2023-01-17T17:55:01.612Z,94469.72
2023-01-17T17:57:28.162Z,94474.91
2023-01-17T17:59:56.770Z,94494.16
2023-01-17T18:02:23.455Z,94491.13
2023-01-17T18:04:50.292Z,94492.16
2023-01-17T18:07:17.162Z,94506.75
2023-01-17T18:09:43.795Z,94502.50
2023-01-17T18:12:10.373Z,94498.78
2023-01-17T18:14:37.023Z,94504.41
2023-01-17T18:17:03.652Z,94512.13
2023-01-17T18:19:30.286Z,94507.22
2023-01-17T18:21:58.119Z,94499.00
2023-01-17T18:24:27.145Z,94496.75
2023-01-17T18:26:57.684Z,94507.81
2023-01-17T18:29:26.034Z,94499.34
2023-01-17T18:31:53.831Z,94490.41
2023-01-17T18:34:29.024Z,94485.59
2023-01-17T18:36:55.859Z,94499.69
2023-01-17T18:39:29.866Z,94495.47
2023-01-17T18:41:56.705Z,94492.75
2023-01-17T18:44:23.360Z,94491.22
2023-01-17T18:46:52.469Z,94497.81
2023-01-17T18:49:19.524Z,94505.09
2023-01-17T18:51:50.404Z,94504.75
2023-01-17T18:54:18.128Z,94507.91
2023-01-17T18:56:44.813Z,94506.97
2023-01-17T18:59:12.988Z,94507.34
2023-01-17T19:01:43.551Z,94506.97
2023-01-17T19:04:12.133Z,94505.81
2023-01-17T19:06:41.290Z,94494.75
2023-01-17T19:09:09.331Z,94480.66
2023-01-17T19:11:36.753Z,94489.38
2023-01-17T19:14:04.055Z,94484.53
2023-01-17T19:16:34.699Z,94488.16
2023-01-17T19:19:03.955Z,94486.19
2023-01-17T19:21:31.077Z,94490.06
2023-01-17T19:23:58.865Z,94479.72
2023-01-17T19:26:27.397Z,94473.50
2023-01-17T19:29:05.095Z,94467.25
2023-01-17T19:31:35.725Z,94466.47
2023-01-17T19:34:02.668Z,94463.84
2023-01-17T19:36:34.434Z,94467.50
2023-01-17T19:39:05.399Z,94469.72
2023-01-17T19:41:35.066Z,94468.09
2023-01-17T19:44:06.701Z,94468.66
2023-01-17T19:46:34.309Z,94474.31
2023-01-17T19:49:01.517Z,94471.50
2023-01-17T19:51:28.844Z,94464.69
2023-01-17T19:53:56.769Z,94473.25
2023-01-17T19:56:26.192Z,94464.31
2023-01-17T19:58:53.237Z,94463.63
2023-01-17T20:01:27.379Z,94464.91
2023-01-17T20:03:57.509Z,94462.94
2023-01-17T20:06:27.523Z,94463.03
2023-01-17T20:08:54.428Z,94463.03
2023-01-17T20:11:22.819Z,94466.34
2023-01-17T20:13:54.403Z,94467.28
2023-01-17T20:16:22.633Z,94475.97
2023-01-17T20:18:51.838Z,94470.19
2023-01-17T20:21:24.552Z,94463.53
2023-01-17T20:23:52.666Z,94464.56
2023-01-17T20:26:34.355Z,94475.59
2023-01-17T20:29:10.794Z,94468.94
2023-01-17T20:31:38.396Z,94469.13
2023-01-17T20:34:06.529Z,94467.25
2023-01-17T20:36:33.227Z,94463.84
2023-01-17T20:39:00.885Z,94474.97
2023-01-17T20:41:43.535Z,94483.31
2023-01-17T20:44:15.612Z,94490.72
2023-01-17T20:46:43.416Z,94481.78
2023-01-17T20:49:15.816Z,94486.72
2023-01-17T20:51:44.310Z,94480.06
2023-01-17T20:54:14.286Z,94486.16
2023-01-17T20:56:41.665Z,94484.84
2023-01-17T20:59:12.174Z,94487.22
2023-01-17T21:01:38.987Z,94484.06
2023-01-17T21:04:10.048Z,94485.94
2023-01-17T21:06:41.585Z,94484.53
2023-01-17T21:09:11.936Z,94485.69
2023-01-17T21:11:38.530Z,94492.03
2023-01-17T21:14:05.936Z,94495.44
2023-01-17T21:16:34.207Z,94493.81
2023-01-17T21:19:01.423Z,94491.81
2023-01-17T21:21:29.243Z,94495.81
2023-01-17T21:23:59.935Z,94496.41
2023-01-17T21:26:28.585Z,94495.00
2023-01-17T21:28:55.819Z,94503.66
2023-01-17T21:31:25.849Z,94514.94
2023-01-17T21:33:57.989Z,94511.22
2023-01-17T21:36:27.698Z,94518.47
2023-01-17T21:38:57.193Z,94524.13
2023-01-17T21:41:30.162Z,94535.16
2023-01-17T21:44:00.191Z,94531.41
2023-01-17T21:46:27.761Z,94536.31
2023-01-17T21:48:56.675Z,94540.31
2023-01-17T21:51:24.355Z,94556.06
2023-01-17T21:53:51.017Z,94557.13
2023-01-17T21:56:36.512Z,94562.41
2023-01-17T21:59:03.227Z,94566.19
2023-01-17T22:01:32.775Z,94578.16
2023-01-17T22:04:01.593Z,94583.56
2023-01-17T22:06:38.568Z,94587.06
2023-01-17T22:09:06.301Z,94589.31
2023-01-17T22:11:35.775Z,94577.81
2023-01-17T22:14:05.212Z,94584.72
2023-01-17T22:16:32.201Z,94600.44
2023-01-17T22:18:59.072Z,94603.22
2023-01-17T22:21:28.301Z,94594.88
2023-01-17T22:23:59.426Z,94601.56
2023-01-17T22:26:28.865Z,94603.63
2023-01-17T22:28:55.909Z,94614.41
2023-01-17T22:31:25.567Z,94621.47
2023-01-17T22:33:53.889Z,94614.28
2023-01-17T22:36:21.528Z,94613.91
2023-01-17T22:38:48.494Z,94604.59
2023-01-17T22:41:19.969Z,94613.91
2023-01-17T22:43:52.340Z,94624.50
2023-01-17T22:46:28.292Z,94636.41
2023-01-17T22:48:57.288Z,94644.44
2023-01-17T22:51:26.065Z,94645.22
2023-01-17T22:53:55.626Z,94642.53
2023-01-17T22:56:28.204Z,94647.66
2023-01-17T22:58:54.759Z,94640.38
2023-01-17T23:01:26.629Z,94652.34
2023-01-17T23:03:57.082Z,94655.88
2023-01-17T23:06:32.098Z,94655.16
2023-01-17T23:09:02.378Z,94652.16
2023-01-17T23:11:52.565Z,94651.47
2023-01-17T23:14:26.524Z,94647.72
2023-01-17T23:17:22.036Z,94657.91
2023-01-17T23:19:51.157Z,94662.50
2023-01-17T23:22:29.097Z,94657.81
2023-01-17T23:25:14.657Z,94657.09
2023-01-17T23:28:05.129Z,94657.09
2023-01-17T23:30:40.258Z,94665.91
2023-01-17T23:33:12.117Z,94673.88
2023-01-17T23:35:42.191Z,94669.06
2023-01-17T23:38:33.825Z,94670.59
2023-01-17T23:41:26.560Z,94676.56
2023-01-17T23:43:57.552Z,94675.59
2023-01-17T23:46:25.551Z,94683.00
2023-01-17T23:48:52.682Z,94691.94
2023-01-17T23:51:19.305Z,94685.13
2023-01-17T23:53:45.990Z,94690.66
2023-01-17T23:56:23.130Z,94699.72
2023-01-17T23:58:50.256Z,94693.75
